Data for 07/27/2017

Time Sea-Level Adjusted Pressure Absolute Pressure Temperature Relative Humidity Dew Point   
(mb) (inHg) (mb) (inHg) (C) (F) (%) (C) (F)
00:05 1023 30.21 852 25.16 17.5 63.5 60 9.7 49.5
00:10 1023 30.21 852 25.16 17.2 62.9 61 9.8 49.6
00:15 1023 30.21 852 25.16 17 62.7 61 9.4 49
00:20 1023 30.21 852 25.16 17.1 62.8 60 9.4 49
00:25 1022 30.18 852 25.16 17 62.6 61 9.5 49.1
00:30 1022 30.18 852 25.16 17 62.5 61 9.5 49.1
00:35 1022 30.18 852 25.16 16.9 62.4 61 9.4 48.9
00:40 1022 30.18 852 25.16 17 62.6 61 9.5 49
00:45 1022 30.18 852 25.16 16.9 62.4 61 9.4 48.9
00:50 1022 30.18 852 25.16 17.1 62.7 60 9.3 48.7
00:55 1022 30.18 852 25.16 17.1 62.7 60 9.4 49
01:00 1022 30.18 852 25.16 16.8 62.2 61 9.4 48.9
01:05 1022 30.18 852 25.16 16.3 61.4 62 9.2 48.5
01:10 1022 30.18 852 25.16 16.2 61.2 62 9 48.2
01:15 1022 30.18 852 25.16 16.2 61.1 62 8.9 48.1
01:20 1022 30.18 852 25.16 16.2 61.2 61 8.9 48
01:25 1022 30.18 852 25.16 16.4 61.4 61 8.9 48.1
01:30 1022 30.18 852 25.16 16.3 61.4 61 8.9 48.1
01:35 1022 30.18 852 25.16 16.3 61.3 61 8.9 48
01:40 1022 30.18 852 25.16 16.5 61.6 60 8.8 47.8
01:45 1022 30.18 852 25.16 16.5 61.7 60 8.8 47.8
01:50 1022 30.18 852 25.16 16.7 62.1 59 8.7 47.6
01:55 1022 30.18 852 25.16 16.8 62.2 59 8.9 47.9
02:00 1022 30.18 852 25.16 16.7 62.1 59 8.8 47.8
02:05 1022 30.18 852 25.16 16.7 62.1 59 8.7 47.7
02:10 1022 30.18 852 25.16 16.8 62.2 59 8.9 48
02:15 1022 30.18 851 25.13 16.5 61.7 60 8.9 48
02:20 1022 30.18 851 25.13 16.3 61.4 61 8.8 47.9
02:25 1022 30.18 851 25.13 16.5 61.6 60 8.7 47.6
02:30 1022 30.18 852 25.16 16.5 61.7 61 8.9 48.1
02:35 1022 30.18 852 25.16 16.3 61.3 61 8.9 48
02:40 1022 30.18 852 25.16 16.2 61.2 61 8.7 47.7
02:45 1022 30.18 851 25.13 16.3 61.3 61 8.7 47.7
02:50 1022 30.18 851 25.13 16.2 61.2 61 8.7 47.6
02:55 1022 30.18 851 25.13 16.3 61.3 61 8.7 47.7
03:00 1022 30.18 852 25.16 16.3 61.4 60 8.7 47.7
03:05 1022 30.18 852 25.16 16.4 61.4 60 8.7 47.7
03:10 1022 30.18 852 25.16 16.4 61.5 61 8.9 48
03:15 1022 30.18 852 25.16 16.3 61.4 61 8.9 48
03:20 1022 30.18 852 25.16 16.3 61.3 61 8.9 47.9
03:25 1022 30.18 852 25.16 16.4 61.5 61 8.9 48.1
03:30 1022 30.18 852 25.16 16.3 61.4 61 8.9 48
03:35 1022 30.18 852 25.16 16.3 61.4 61 8.9 48
03:40 1022 30.18 852 25.16 16.2 61.2 61 8.8 47.9
03:45 1022 30.18 852 25.16 16.1 61 62 8.9 48
03:50 1022 30.18 852 25.16 15.9 60.6 63 8.9 48
03:55 1022 30.18 852 25.16 15.7 60.2 63 8.8 47.9
04:00 1022 30.18 852 25.16 15.5 59.8 62 8.4 47.1
04:05 1022 30.18 852 25.16 15.7 60.3 61 8.3 46.9
04:10 1022 30.18 852 25.16 15.9 60.6 61 8.5 47.3
04:15 1022 30.18 852 25.16 15.8 60.4 61 8.3 47
04:20 1023 30.21 852 25.16 15.7 60.3 62 8.6 47.4
04:25 1023 30.21 852 25.16 15.4 59.6 62 8.1 46.6
04:30 1023 30.21 852 25.16 15.1 59.2 62 8.1 46.5
04:35 1023 30.21 852 25.16 15 58.9 63 8.1 46.5
04:40 1023 30.21 852 25.16 14.8 58.6 63 8 46.4
04:45 1023 30.21 852 25.16 14.5 58.2 65 8 46.4
04:50 1023 30.21 852 25.16 14.3 57.7 66 8 46.4
04:55 1023 30.21 852 25.16 14.2 57.6 65 7.9 46.2
05:00 1023 30.21 852 25.16 14.2 57.6 65 7.8 46.1
05:05 1023 30.21 852 25.16 14.2 57.6 66 7.9 46.3
05:10 1023 30.21 852 25.16 14.1 57.5 66 7.9 46.2
05:15 1023 30.21 852 25.16 14.2 57.6 65 7.8 46
05:20 1023 30.21 852 25.16 14.3 57.8 66 8 46.5
05:25 1023 30.21 852 25.16 13.9 57 68 8.1 46.5
05:30 1023 30.21 852 25.16 13.4 56.2 70 8.2 46.7
05:35 1023 30.21 852 25.16 13 55.3 72 8 46.4
05:40 1023 30.21 852 25.16 12.8 55.1 72 7.9 46.2
05:45 1023 30.21 852 25.16 12.8 55 72 7.8 46.1
05:50 1023 30.21 852 25.16 12.7 54.9 72 7.8 46
05:55 1023 30.21 852 25.16 12.8 55.1 71 7.7 45.8
06:00 1023 30.21 852 25.16 12.9 55.2 71 7.7 45.9
06:05 1023 30.21 852 25.16 13 55.4 70 7.6 45.7
06:10 1023 30.21 852 25.16 13.3 55.9 68 7.5 45.6
06:15 1023 30.21 852 25.16 13.6 56.5 66 7.5 45.5
06:20 1023 30.21 852 25.16 13.7 56.6 66 7.6 45.6
06:25 1023 30.21 852 25.16 13.7 56.7 66 7.5 45.5
06:30 1023 30.21 852 25.16 13.9 57 64 7.4 45.3
06:35 1023 30.21 852 25.16 14.1 57.4 65 7.8 46
06:40 1023 30.21 852 25.16 13.7 56.7 67 7.7 45.9
06:45 1023 30.21 852 25.16 13.5 56.3 67 7.6 45.6
06:50 1023 30.21 852 25.16 13.5 56.4 67 7.7 45.8
06:55 1023 30.21 852 25.16 13.6 56.5 65 7.3 45.1
07:00 1023 30.21 852 25.16 14.2 57.6 63 7.4 45.3
07:05 1023 30.21 852 25.16 14.6 58.3 63 7.6 45.7
07:10 1023 30.21 852 25.16 14.7 58.4 63 7.7 45.9
07:15 1023 30.21 852 25.16 14.8 58.7 63 7.9 46.1
07:20 1023 30.21 852 25.16 14.9 58.7 63 8 46.4
07:25 1023 30.21 852 25.16 15 59 63 8.1 46.6
07:30 1023 30.21 852 25.16 15.1 59.2 62 8 46.5
07:35 1023 30.21 852 25.16 15.7 60.3 60 8 46.4
07:40 1023 30.21 852 25.16 16.2 61.1 59 8.3 46.9
07:45 1023 30.21 852 25.16 16.6 61.8 58 8.3 47
07:50 1023 30.21 852 25.16 16.7 62.1 58 8.4 47.1
07:55 1023 30.21 852 25.16 16.9 62.3 58 8.6 47.4
08:00 1023 30.21 852 25.16 16.8 62.3 59 8.7 47.7
08:05 1023 30.21 852 25.16 16.9 62.3 58 8.7 47.7
08:10 1023 30.21 852 25.16 16.8 62.2 60 9.1 48.3
08:15 1023 30.21 852 25.16 17.3 63.1 57 8.8 47.9
08:20 1023 30.21 852 25.16 17.9 64.3 57 9.4 48.9
08:25 1023 30.21 852 25.16 18.5 65.3 54 9 48.2
08:30 1023 30.21 852 25.16 18.4 65.2 54 8.9 48.1
08:35 1023 30.21 852 25.16 18.5 65.3 57 10 50
08:40 1023 30.21 852 25.16 19.2 66.5 52 9.1 48.5
08:45 1023 30.21 852 25.16 20.1 68.2 49 9.1 48.4
08:50 1023 30.21 852 25.16 20.6 69 50 10 49.9
08:55 1023 30.21 852 25.16 20.9 69.6 45 8.8 47.8
09:00 1023 30.21 852 25.16 21 69.7 46 9.1 48.3
09:05 1023 30.21 852 25.16 21.1 69.9 44 8.4 47.1
09:10 1023 30.21 852 25.16 21.6 70.9 43 8.7 47.6
09:15 1023 30.21 852 25.16 22 71.6 41 8.3 47
09:20 1023 30.21 852 25.16 22.5 72.5 40 8.4 47.1
09:25 1023 30.21 852 25.16 23 73.4 38 8.1 46.5
09:30 1023 30.21 852 25.16 23.8 74.8 35 7.8 46.1
09:35 1023 30.21 852 25.16 23.9 75.1 37 8.5 47.4
09:40 1023 30.21 852 25.16 23 73.4 39 8.4 47.1
09:45 1023 30.21 852 25.16 22.7 72.8 38 7.6 45.8
09:50 1023 30.21 852 25.16 23.4 74.1 36 7.8 46.1
09:55 1023 30.21 852 25.16 24.3 75.8 33 7.2 44.9
10:00 1023 30.21 852 25.16 24.7 76.4 33 7.8 46
10:05 1023 30.21 852 25.16 23.8 74.8 36 7.9 46.2
10:10 1023 30.21 852 25.16 23.4 74.2 34 6.7 44.1
10:15 1023 30.21 852 25.16 23.5 74.3 34 6.8 44.3
10:20 1023 30.21 852 25.16 23.7 74.7 33 6.9 44.5
10:25 1023 30.21 852 25.16 24.5 76 33 7.5 45.5
10:30 1023 30.21 852 25.16 23.8 74.8 36 8.1 46.5
10:35 1023 30.21 852 25.16 23.9 75 33 7.1 44.7
10:40 1023 30.21 852 25.16 24.5 76 33 7.4 45.3
10:45 1023 30.21 852 25.16 25.2 77.4 31 7.3 45.2
10:50 1023 30.21 852 25.16 25.2 77.4 31 7.3 45.2
10:55 1023 30.21 852 25.16 25.4 77.7 30 7 44.7
11:00 1023 30.21 852 25.16 24.9 76.7 32 7.5 45.5
11:05 1023 30.21 852 25.16 25 77 32 7.2 44.9
11:10 1023 30.21 852 25.16 24.4 76 32 6.9 44.4
11:15 1023 30.21 852 25.16 25.5 77.9 30 6.8 44.3
11:20 1023 30.21 852 25.16 26.2 79.1 30 7.4 45.4
11:25 1023 30.21 852 25.16 25.9 78.6 31 7.6 45.6
11:30 1023 30.21 852 25.16 26.4 79.5 29 7 44.6
11:35 1023 30.21 852 25.16 26.6 79.9 28 7.1 44.8
11:40 1022 30.18 852 25.16 26.5 79.7 28 6.7 44
11:45 1022 30.18 852 25.16 26.3 79.4 29 7.2 45
11:50 1022 30.18 852 25.16 26.8 80.2 29 7.3 45.2
11:55 1022 30.18 851 25.13 26.1 79 31 7.8 46
12:00 1022 30.18 851 25.13 25.7 78.3 29 6.7 44.1
12:05 1022 30.18 851 25.13 26.7 80 27 6.5 43.8
12:10 1022 30.18 851 25.13 26.4 79.4 28 6.6 43.8
12:15 1022 30.18 851 25.13 27 80.6 27 6.9 44.4
12:20 1022 30.18 851 25.13 27.3 81.1 26 6.2 43.2
12:25 1022 30.18 851 25.13 26.9 80.4 27 6.6 43.9
12:30 1022 30.18 851 25.13 27.5 81.5 25 6.2 43.2
12:35 1022 30.18 851 25.13 27.3 81.1 26 6.4 43.4
12:40 1022 30.18 851 25.13 27.3 81.2 26 6.5 43.7
12:45 1022 30.18 851 25.13 27.7 81.9 25 6.2 43.1
12:50 1022 30.18 851 25.13 27.8 82 25 6.2 43.1
12:55 1022 30.18 851 25.13 26.8 80.3 28 7.2 45
13:00 1022 30.18 851 25.13 26.7 80 27 6.4 43.5
13:05 1022 30.18 851 25.13 26.4 79.5 27 6.4 43.5
13:10 1022 30.18 851 25.13 27 80.6 26 6.3 43.3
13:15 1021 30.15 851 25.13 27.7 81.9 25 6.1 42.9
13:20 1021 30.15 851 25.13 28.1 82.6 24 6 42.8
13:25 1021 30.15 851 25.13 28.5 83.4 24 6.5 43.6
13:30 1021 30.15 851 25.13 28.1 82.6 25 6.6 44
13:35 1021 30.15 850 25.1 28.1 82.6 24 5.9 42.5
13:40 1021 30.15 851 25.13 28.8 83.8 23 6.1 43
13:45 1021 30.15 850 25.1 29.1 84.3 22 5.3 41.5
13:50 1021 30.15 850 25.1 28.8 83.8 23 5.7 42.3
13:55 1021 30.15 850 25.1 28.7 83.7 24 6.5 43.7
14:00 1021 30.15 850 25.1 27.7 81.9 25 6.4 43.5
14:05 1021 30.15 850 25.1 27.7 81.8 25 6.2 43.1
14:10 1021 30.15 850 25.1 28.2 82.7 24 6.3 43.4
14:15 1021 30.15 850 25.1 28.2 82.8 24 6 42.8
14:20 1021 30.15 850 25.1 27.5 81.5 25 6 42.8
14:25 1021 30.15 850 25.1 27.1 80.7 25 5.9 42.6
14:30 1021 30.15 850 25.1 26.9 80.5 25 5.7 42.3
14:35 1021 30.15 850 25.1 27.9 82.3 22 4.8 40.6
14:40 1021 30.15 850 25.1 28.8 83.9 23 6.2 43.1
14:45 1021 30.15 850 25.1 28.9 84.1 23 5.8 42.4
14:50 1021 30.15 850 25.1 28.9 84 23 5.9 42.6
14:55 1021 30.15 850 25.1 28.6 83.5 23 5.6 42.1
15:00 1021 30.15 850 25.1 28.4 83.2 22 5.2 41.4
15:05 1021 30.15 850 25.1 28.2 82.7 23 5.5 41.9
15:10 1021 30.15 850 25.1 28.2 82.7 22 5 41
15:15 1021 30.15 850 25.1 28.3 83 23 5.6 42.2
15:20 1021 30.15 850 25.1 28.1 82.7 23 5.2 41.4
15:25 1021 30.15 850 25.1 28.3 82.9 23 5.4 41.7
15:30 1021 30.15 850 25.1 28 82.4 24 5.7 42.3
15:35 1020 30.12 850 25.1 28.3 82.9 23 5.6 42
15:40 1020 30.12 850 25.1 28.3 82.9 23 5.3 41.5
15:45 1020 30.12 849 25.07 27.2 81 24 5.1 41.2
15:50 1020 30.12 849 25.07 27.5 81.4 24 5.2 41.4
15:55 1020 30.12 849 25.07 28 82.3 22 4.7 40.5
16:00 1020 30.12 849 25.07 27.9 82.2 22 4.6 40.3
16:05 1020 30.12 849 25.07 27.9 82.2 22 4.7 40.5
16:10 1020 30.12 849 25.07 27.9 82.2 23 4.9 40.8
16:15 1020 30.12 849 25.07 27.8 82.1 23 4.8 40.7
16:20 1020 30.12 849 25.07 27.9 82.1 23 4.8 40.7
16:25 1020 30.12 849 25.07 27.8 82.1 22 4.7 40.4
16:30 1020 30.12 850 25.1 27.6 81.7 23 5.1 41.2
16:35 1020 30.12 850 25.1 27.2 81 24 5.4 41.7
16:40 1020 30.12 850 25.1 26.8 80.3 25 5.4 41.7
16:45 1021 30.15 850 25.1 26.4 79.5 27 6 42.9
16:50 1021 30.15 850 25.1 26 78.7 28 6.2 43.2
16:55 1021 30.15 850 25.1 25.7 78.2 31 7.7 45.9
17:00 1021 30.15 850 25.1 25.1 77.2 33 7.8 46.1
17:05 1021 30.15 850 25.1 23.6 74.5 34 7.1 44.9
17:10 1021 30.15 850 25.1 22.9 73.3 35 7 44.5
17:15 1021 30.15 850 25.1 22.8 73.1 35 6.9 44.4
17:20 1021 30.15 850 25.1 22.9 73.2 34 6.6 43.8
17:25 1021 30.15 850 25.1 22.9 73.3 35 6.8 44.2
17:30 1021 30.15 850 25.1 22.9 73.2 37 7.8 46
17:35 1021 30.15 850 25.1 22.5 72.4 40 8.3 46.9
17:40 1021 30.15 850 25.1 22.2 72 41 8.6 47.4
17:45 1021 30.15 850 25.1 21.8 71.2 44 9 48.3
17:50 1021 30.15 850 25.1 21.2 70.2 46 9.4 48.9
17:55 1021 30.15 850 25.1 20.8 69.5 48 9.7 49.4
18:00 1021 30.15 850 25.1 20.5 68.9 48 9.4 48.9
18:05 1021 30.15 850 25.1 20.5 68.8 45 8.4 47.2
18:10 1021 30.15 850 25.1 20.7 69.2 48 9.5 49.1
18:15 1021 30.15 850 25.1 20.9 69.6 45 8.5 47.3
18:20 1021 30.15 850 25.1 21.5 70.8 44 9.1 48.3
18:25 1021 30.15 850 25.1 21.9 71.4 43 8.8 47.9
18:30 1021 30.15 850 25.1 22.2 71.9 44 9.6 49.3
18:35 1021 30.15 850 25.1 21.9 71.5 45 9.8 49.6
18:40 1021 30.15 850 25.1 22.1 71.8 44 9.3 48.7
18:45 1021 30.15 850 25.1 22.5 72.4 39 8 46.3
18:50 1021 30.15 850 25.1 22.8 73.1 39 8.4 47.1
18:55 1021 30.15 850 25.1 23 73.5 39 8.6 47.5
19:00 1021 30.15 850 25.1 23.3 73.9 37 8 46.4
19:05 1021 30.15 850 25.1 23.5 74.3 36 7.7 45.8
19:10 1021 30.15 850 25.1 23.7 74.7 37 8.2 46.8
19:15 1021 30.15 850 25.1 23.2 73.8 38 8.2 46.8
19:20 1021 30.15 850 25.1 22.9 73.3 39 8.5 47.4
19:25 1021 30.15 850 25.1 23 73.5 39 8.4 47.2
19:30 1021 30.15 850 25.1 23.1 73.5 37 7.7 45.9
19:35 1021 30.15 850 25.1 23.1 73.7 39 8.7 47.7
19:40 1021 30.15 850 25.1 23.2 73.7 38 8.2 46.8
19:45 1021 30.15 850 25.1 23.2 73.8 37 7.9 46.1
19:50 1021 30.15 850 25.1 23.2 73.8 38 8.3 47
19:55 1021 30.15 850 25.1 23.3 73.9 37 7.8 46
20:00 1021 30.15 850 25.1 23.2 73.8 39 8.6 47.5
20:05 1021 30.15 850 25.1 23.3 74 38 8.4 47
20:10 1021 30.15 850 25.1 23.3 74 36 7.7 45.8
20:15 1021 30.15 850 25.1 23.3 74 37 8.2 46.7
20:20 1020 30.12 850 25.1 23.3 73.9 39 8.6 47.4
20:25 1020 30.12 850 25.1 23.2 73.7 38 8.3 47
20:30 1020 30.12 850 25.1 23 73.4 39 8.4 47.2
20:35 1020 30.12 850 25.1 22.9 73.2 38 8 46.5
20:40 1020 30.12 850 25.1 22.7 72.9 39 8.3 46.9
20:45 1020 30.12 850 25.1 22.7 72.8 40 8.7 47.7
20:50 1021 30.15 850 25.1 22.6 72.7 41 8.7 47.7
20:55 1021 30.15 850 25.1 22.4 72.3 41 8.6 47.4
21:00 1021 30.15 850 25.1 22.2 71.9 40 8.2 46.8
21:05 1021 30.15 850 25.1 22 71.5 40 7.8 46
21:10 1021 30.15 850 25.1 21.7 71.1 39 7.4 45.3
21:15 1021 30.15 850 25.1 21.5 70.7 39 7.2 44.9
21:20 1021 30.15 850 25.1 21.4 70.5 39 7 44.6
21:25 1021 30.15 850 25.1 21.3 70.3 40 7.2 44.9
21:30 1021 30.15 850 25.1 21 69.9 40 7.2 45
21:35 1021 30.15 850 25.1 20.7 69.3 41 7.3 45.1
21:40 1021 30.15 850 25.1 20.4 68.8 42 7.3 45.2
21:45 1021 30.15 850 25.1 20.3 68.5 44 7.7 45.8
21:50 1021 30.15 850 25.1 19.9 67.8 46 8.1 46.6
21:55 1021 30.15 850 25.1 19.4 66.8 48 8.2 46.8
22:00 1021 30.15 851 25.13 19.1 66.3 48 7.9 46.3
22:05 1021 30.15 851 25.13 19 66.1 48 7.9 46.1
22:10 1021 30.15 851 25.13 18.9 66 49 8 46.3
22:15 1022 30.18 851 25.13 18.8 65.8 49 8 46.4
22:20 1022 30.18 851 25.13 18.6 65.5 50 8.2 46.8
22:25 1022 30.18 851 25.13 18.3 64.9 52 8.3 46.9
22:30 1022 30.18 851 25.13 17.9 64.3 54 8.6 47.5
22:35 1022 30.18 851 25.13 17.8 64 55 8.7 47.6
22:40 1022 30.18 851 25.13 17.6 63.7 56 8.8 47.8
22:45 1022 30.18 851 25.13 17.5 63.4 56 8.8 47.8
22:50 1022 30.18 851 25.13 17.6 63.7 54 8.2 46.8
22:55 1022 30.18 851 25.13 17.8 64 53 8.3 47
23:00 1022 30.18 851 25.13 17.9 64.3 54 8.6 47.4
23:05 1022 30.18 851 25.13 17.8 64 55 8.7 47.6
23:10 1022 30.18 851 25.13 17.6 63.6 56 8.7 47.7
23:15 1022 30.18 851 25.13 17.4 63.3 55 8.2 46.8
23:20 1022 30.18 851 25.13 17.4 63.3 53 7.9 46.2
23:25 1022 30.18 851 25.13 17.5 63.5 53 8.1 46.5
23:30 1022 30.18 851 25.13 17.4 63.4 54 8.1 46.6
23:35 1022 30.18 851 25.13 17.4 63.3 55 8.3 46.9
23:40 1022 30.18 851 25.13 17.3 63.1 55 8.1 46.7
23:45 1022 30.18 851 25.13 17.3 63.1 55 8.2 46.7
23:50 1022 30.18 851 25.13 17 62.7 55 8.1 46.6
23:55 1022 30.18 851 25.13 16.9 62.4 56 8 46.5
24:00 1022 30.18 851 25.13 16.8 62.2 56 8 46.4